sensor_id;sensor_type;location;lat;lon;timestamp;P1;durP1;ratioP1;P2;durP2;ratioP2
4756;SDS011;2392;52.578;13.426;2023-02-01T00:00:01;14.27;;;3.20;;
4756;SDS011;2392;52.578;13.426;2023-02-01T00:02:33;28.30;;;4.13;;
4756;SDS011;2392;52.578;13.426;2023-02-01T00:05:06;23.10;;;3.90;;
4756;SDS011;2392;52.578;13.426;2023-02-01T00:07:33;14.90;;;3.43;;
4756;SDS011;2392;52.578;13.426;2023-02-01T00:10:02;10.20;;;2.50;;
4756;SDS011;2392;52.578;13.426;2023-02-01T00:12:31;21.27;;;3.90;;
4756;SDS011;2392;52.578;13.426;2023-02-01T00:14:59;14.87;;;3.33;;
4756;SDS011;2392;52.578;13.426;2023-02-01T00:17:26;13.30;;;3.70;;
4756;SDS011;2392;52.578;13.426;2023-02-01T00:19:53;18.70;;;4.30;;
4756;SDS011;2392;52.578;13.426;2023-02-01T00:22:22;10.70;;;3.10;;
4756;SDS011;2392;52.578;13.426;2023-02-01T00:24:51;21.43;;;3.70;;
4756;SDS011;2392;52.578;13.426;2023-02-01T00:27:19;32.57;;;3.97;;
4756;SDS011;2392;52.578;13.426;2023-02-01T00:29:46;16.20;;;4.50;;
4756;SDS011;2392;52.578;13.426;2023-02-01T00:32:13;16.20;;;3.77;;
4756;SDS011;2392;52.578;13.426;2023-02-01T00:34:40;13.30;;;2.80;;
4756;SDS011;2392;52.578;13.426;2023-02-01T00:37:07;21.97;;;3.10;;
4756;SDS011;2392;52.578;13.426;2023-02-01T00:39:34;17.00;;;3.10;;
4756;SDS011;2392;52.578;13.426;2023-02-01T00:42:01;18.00;;;3.30;;
4756;SDS011;2392;52.578;13.426;2023-02-01T00:44:30;13.03;;;3.07;;
4756;SDS011;2392;52.578;13.426;2023-02-01T00:46:59;9.63;;;2.37;;
4756;SDS011;2392;52.578;13.426;2023-02-01T00:49:26;13.53;;;2.97;;
4756;SDS011;2392;52.578;13.426;2023-02-01T00:51:53;14.67;;;3.60;;
4756;SDS011;2392;52.578;13.426;2023-02-01T00:54:21;9.00;;;2.53;;
4756;SDS011;2392;52.578;13.426;2023-02-01T00:56:48;13.00;;;2.77;;
4756;SDS011;2392;52.578;13.426;2023-02-01T00:59:17;9.77;;;2.90;;
4756;SDS011;2392;52.578;13.426;2023-02-01T01:01:45;10.07;;;2.40;;
4756;SDS011;2392;52.578;13.426;2023-02-01T01:04:12;12.27;;;2.27;;
4756;SDS011;2392;52.578;13.426;2023-02-01T01:06:39;8.97;;;2.50;;
4756;SDS011;2392;52.578;13.426;2023-02-01T01:09:07;7.90;;;2.10;;
4756;SDS011;2392;52.578;13.426;2023-02-01T01:11:34;16.87;;;2.97;;
4756;SDS011;2392;52.578;13.426;2023-02-01T01:14:05;8.70;;;2.83;;
4756;SDS011;2392;52.578;13.426;2023-02-01T01:16:34;19.80;;;3.20;;
4756;SDS011;2392;52.578;13.426;2023-02-01T01:19:02;9.17;;;2.80;;
4756;SDS011;2392;52.578;13.426;2023-02-01T01:21:30;12.03;;;2.40;;
4756;SDS011;2392;52.578;13.426;2023-02-01T01:23:57;13.13;;;4.07;;
4756;SDS011;2392;52.578;13.426;2023-02-01T01:26:25;8.93;;;2.23;;
4756;SDS011;2392;52.578;13.426;2023-02-01T01:28:54;11.10;;;2.60;;
4756;SDS011;2392;52.578;13.426;2023-02-01T01:31:21;15.60;;;2.73;;
4756;SDS011;2392;52.578;13.426;2023-02-01T01:33:49;14.47;;;2.30;;
4756;SDS011;2392;52.578;13.426;2023-02-01T01:36:18;13.30;;;3.70;;
4756;SDS011;2392;52.578;13.426;2023-02-01T01:38:46;15.83;;;3.77;;
4756;SDS011;2392;52.578;13.426;2023-02-01T01:41:14;11.67;;;2.83;;
4756;SDS011;2392;52.578;13.426;2023-02-01T01:43:46;15.63;;;2.83;;
4756;SDS011;2392;52.578;13.426;2023-02-01T01:46:16;15.17;;;3.20;;
4756;SDS011;2392;52.578;13.426;2023-02-01T01:48:45;11.30;;;3.30;;
4756;SDS011;2392;52.578;13.426;2023-02-01T01:51:17;18.93;;;3.40;;
4756;SDS011;2392;52.578;13.426;2023-02-01T01:53:48;14.70;;;3.00;;
4756;SDS011;2392;52.578;13.426;2023-02-01T01:56:21;5.07;;;2.10;;
4756;SDS011;2392;52.578;13.426;2023-02-01T01:58:49;15.07;;;3.53;;
4756;SDS011;2392;52.578;13.426;2023-02-01T02:01:15;28.10;;;3.90;;
4756;SDS011;2392;52.578;13.426;2023-02-01T02:03:43;22.60;;;3.90;;
4756;SDS011;2392;52.578;13.426;2023-02-01T02:06:15;9.43;;;2.40;;
4756;SDS011;2392;52.578;13.426;2023-02-01T02:08:49;20.03;;;2.87;;
4756;SDS011;2392;52.578;13.426;2023-02-01T02:11:17;9.77;;;2.30;;
4756;SDS011;2392;52.578;13.426;2023-02-01T02:13:45;8.53;;;2.40;;
4756;SDS011;2392;52.578;13.426;2023-02-01T02:19:20;8.83;;;2.43;;
4756;SDS011;2392;52.578;13.426;2023-02-01T02:22:31;15.63;;;2.53;;
4756;SDS011;2392;52.578;13.426;2023-02-01T02:25:29;15.97;;;2.53;;
4756;SDS011;2392;52.578;13.426;2023-02-01T02:28:30;9.23;;;2.77;;
4756;SDS011;2392;52.578;13.426;2023-02-01T02:31:23;17.67;;;2.77;;
4756;SDS011;2392;52.578;13.426;2023-02-01T02:34:10;18.60;;;2.77;;
4756;SDS011;2392;52.578;13.426;2023-02-01T02:36:46;9.50;;;2.60;;
4756;SDS011;2392;52.578;13.426;2023-02-01T02:39:23;11.43;;;3.90;;
4756;SDS011;2392;52.578;13.426;2023-02-01T02:42:00;22.00;;;3.50;;
4756;SDS011;2392;52.578;13.426;2023-02-01T02:44:53;29.90;;;3.70;;
4756;SDS011;2392;52.578;13.426;2023-02-01T02:47:42;15.00;;;4.30;;
4756;SDS011;2392;52.578;13.426;2023-02-01T02:50:19;14.23;;;2.67;;
4756;SDS011;2392;52.578;13.426;2023-02-01T02:53:10;21.23;;;3.87;;
4756;SDS011;2392;52.578;13.426;2023-02-01T02:55:57;16.70;;;3.30;;
4756;SDS011;2392;52.578;13.426;2023-02-01T02:58:43;18.47;;;3.13;;
4756;SDS011;2392;52.578;13.426;2023-02-01T03:01:30;14.97;;;2.53;;
4756;SDS011;2392;52.578;13.426;2023-02-01T03:04:16;13.63;;;3.10;;
4756;SDS011;2392;52.578;13.426;2023-02-01T03:06:49;11.63;;;2.80;;
4756;SDS011;2392;52.578;13.426;2023-02-01T03:09:17;12.33;;;2.87;;
4756;SDS011;2392;52.578;13.426;2023-02-01T03:11:49;10.33;;;2.17;;
4756;SDS011;2392;52.578;13.426;2023-02-01T03:14:40;17.80;;;3.93;;
4756;SDS011;2392;52.578;13.426;2023-02-01T03:17:13;7.97;;;3.00;;
4756;SDS011;2392;52.578;13.426;2023-02-01T03:19:45;12.03;;;3.43;;
4756;SDS011;2392;52.578;13.426;2023-02-01T03:22:17;11.90;;;2.47;;
4756;SDS011;2392;52.578;13.426;2023-02-01T03:24:48;28.27;;;3.17;;
4756;SDS011;2392;52.578;13.426;2023-02-01T03:27:21;21.53;;;3.50;;
4756;SDS011;2392;52.578;13.426;2023-02-01T03:29:54;15.93;;;3.67;;
4756;SDS011;2392;52.578;13.426;2023-02-01T03:32:25;22.07;;;3.70;;
4756;SDS011;2392;52.578;13.426;2023-02-01T03:34:53;22.90;;;3.40;;
4756;SDS011;2392;52.578;13.426;2023-02-01T03:37:23;14.73;;;3.27;;
4756;SDS011;2392;52.578;13.426;2023-02-01T03:39:53;13.10;;;2.97;;
4756;SDS011;2392;52.578;13.426;2023-02-01T03:42:27;14.53;;;2.70;;
4756;SDS011;2392;52.578;13.426;2023-02-01T03:45:00;19.90;;;3.40;;
4756;SDS011;2392;52.578;13.426;2023-02-01T03:47:33;13.20;;;4.40;;
4756;SDS011;2392;52.578;13.426;2023-02-01T03:50:04;14.57;;;3.27;;
4756;SDS011;2392;52.578;13.426;2023-02-01T03:52:36;14.20;;;3.07;;
4756;SDS011;2392;52.578;13.426;2023-02-01T03:55:07;12.10;;;3.50;;
4756;SDS011;2392;52.578;13.426;2023-02-01T03:57:38;7.80;;;2.90;;
4756;SDS011;2392;52.578;13.426;2023-02-01T04:00:16;13.30;;;3.40;;
4756;SDS011;2392;52.578;13.426;2023-02-01T04:02:49;10.60;;;2.77;;
4756;SDS011;2392;52.578;13.426;2023-02-01T04:05:16;23.50;;;4.50;;
4756;SDS011;2392;52.578;13.426;2023-02-01T04:08:04;14.93;;;3.50;;
4756;SDS011;2392;52.578;13.426;2023-02-01T04:10:31;20.60;;;3.57;;
4756;SDS011;2392;52.578;13.426;2023-02-01T04:12:58;15.30;;;3.93;;
4756;SDS011;2392;52.578;13.426;2023-02-01T04:15:25;17.97;;;3.20;;
4756;SDS011;2392;52.578;13.426;2023-02-01T04:17:52;15.23;;;3.57;;
4756;SDS011;2392;52.578;13.426;2023-02-01T04:20:19;15.87;;;3.60;;
4756;SDS011;2392;52.578;13.426;2023-02-01T04:22:46;12.57;;;2.97;;
4756;SDS011;2392;52.578;13.426;2023-02-01T04:25:14;14.30;;;2.57;;
4756;SDS011;2392;52.578;13.426;2023-02-01T04:27:45;14.33;;;2.80;;
4756;SDS011;2392;52.578;13.426;2023-02-01T04:30:12;15.97;;;2.80;;
4756;SDS011;2392;52.578;13.426;2023-02-01T04:32:40;18.30;;;3.80;;
4756;SDS011;2392;52.578;13.426;2023-02-01T04:35:07;10.47;;;4.10;;
4756;SDS011;2392;52.578;13.426;2023-02-01T04:37:35;13.73;;;3.23;;
4756;SDS011;2392;52.578;13.426;2023-02-01T04:40:02;18.23;;;6.10;;
4756;SDS011;2392;52.578;13.426;2023-02-01T04:42:31;20.70;;;3.83;;
4756;SDS011;2392;52.578;13.426;2023-02-01T04:44:58;20.87;;;3.57;;
4756;SDS011;2392;52.578;13.426;2023-02-01T04:47:25;22.73;;;3.47;;
4756;SDS011;2392;52.578;13.426;2023-02-01T04:49:52;12.10;;;2.93;;
4756;SDS011;2392;52.578;13.426;2023-02-01T04:52:18;13.83;;;2.60;;
4756;SDS011;2392;52.578;13.426;2023-02-01T04:54:45;14.83;;;3.47;;
4756;SDS011;2392;52.578;13.426;2023-02-01T04:57:12;17.97;;;3.10;;
4756;SDS011;2392;52.578;13.426;2023-02-01T04:59:41;15.10;;;3.40;;
4756;SDS011;2392;52.578;13.426;2023-02-01T05:02:08;22.07;;;3.30;;
4756;SDS011;2392;52.578;13.426;2023-02-01T05:04:35;16.87;;;3.23;;
4756;SDS011;2392;52.578;13.426;2023-02-01T05:07:02;21.00;;;3.17;;
4756;SDS011;2392;52.578;13.426;2023-02-01T05:09:29;15.03;;;3.30;;
4756;SDS011;2392;52.578;13.426;2023-02-01T05:11:56;16.70;;;3.40;;
4756;SDS011;2392;52.578;13.426;2023-02-01T05:14:41;16.83;;;3.20;;
4756;SDS011;2392;52.578;13.426;2023-02-01T05:17:08;12.83;;;2.80;;
4756;SDS011;2392;52.578;13.426;2023-02-01T05:19:35;17.63;;;3.73;;
4756;SDS011;2392;52.578;13.426;2023-02-01T05:22:02;17.13;;;3.53;;
4756;SDS011;2392;52.578;13.426;2023-02-01T05:24:29;17.00;;;3.57;;
4756;SDS011;2392;52.578;13.426;2023-02-01T05:26:56;11.63;;;3.60;;
4756;SDS011;2392;52.578;13.426;2023-02-01T05:29:23;13.60;;;2.60;;
4756;SDS011;2392;52.578;13.426;2023-02-01T05:31:51;20.33;;;3.70;;
4756;SDS011;2392;52.578;13.426;2023-02-01T05:34:18;15.93;;;3.33;;
4756;SDS011;2392;52.578;13.426;2023-02-01T05:36:45;19.57;;;3.70;;
4756;SDS011;2392;52.578;13.426;2023-02-01T05:39:12;17.40;;;5.63;;
4756;SDS011;2392;52.578;13.426;2023-02-01T05:41:39;15.23;;;3.20;;
4756;SDS011;2392;52.578;13.426;2023-02-01T05:44:06;22.97;;;5.53;;
4756;SDS011;2392;52.578;13.426;2023-02-01T05:46:33;15.07;;;3.70;;
4756;SDS011;2392;52.578;13.426;2023-02-01T05:49:02;14.93;;;4.43;;
4756;SDS011;2392;52.578;13.426;2023-02-01T05:51:29;14.93;;;3.10;;
4756;SDS011;2392;52.578;13.426;2023-02-01T05:53:56;12.77;;;2.87;;
4756;SDS011;2392;52.578;13.426;2023-02-01T05:56:23;14.83;;;3.27;;
4756;SDS011;2392;52.578;13.426;2023-02-01T05:58:50;21.87;;;5.07;;
4756;SDS011;2392;52.578;13.426;2023-02-01T06:01:18;18.13;;;3.97;;
4756;SDS011;2392;52.578;13.426;2023-02-01T06:03:45;18.87;;;4.07;;
4756;SDS011;2392;52.578;13.426;2023-02-01T06:06:13;10.03;;;2.83;;
4756;SDS011;2392;52.578;13.426;2023-02-01T06:08:40;9.47;;;2.50;;
4756;SDS011;2392;52.578;13.426;2023-02-01T06:11:07;18.37;;;3.80;;
4756;SDS011;2392;52.578;13.426;2023-02-01T06:13:34;19.10;;;4.20;;
4756;SDS011;2392;52.578;13.426;2023-02-01T06:16:03;17.53;;;3.30;;
4756;SDS011;2392;52.578;13.426;2023-02-01T06:18:32;15.00;;;3.70;;
4756;SDS011;2392;52.578;13.426;2023-02-01T06:21:00;18.43;;;3.50;;
4756;SDS011;2392;52.578;13.426;2023-02-01T06:23:28;17.23;;;3.57;;
4756;SDS011;2392;52.578;13.426;2023-02-01T06:26:00;14.53;;;3.13;;
4756;SDS011;2392;52.578;13.426;2023-02-01T06:28:29;16.30;;;4.07;;
4756;SDS011;2392;52.578;13.426;2023-02-01T06:30:56;23.33;;;4.93;;
4756;SDS011;2392;52.578;13.426;2023-02-01T06:33:24;13.07;;;3.20;;
4756;SDS011;2392;52.578;13.426;2023-02-01T06:35:56;14.57;;;2.87;;
4756;SDS011;2392;52.578;13.426;2023-02-01T06:38:23;18.20;;;3.53;;
4756;SDS011;2392;52.578;13.426;2023-02-01T06:40:56;11.70;;;3.43;;
4756;SDS011;2392;52.578;13.426;2023-02-01T06:43:24;15.03;;;4.30;;
4756;SDS011;2392;52.578;13.426;2023-02-01T06:45:53;22.27;;;4.20;;
4756;SDS011;2392;52.578;13.426;2023-02-01T06:48:25;17.70;;;3.53;;
4756;SDS011;2392;52.578;13.426;2023-02-01T06:50:52;16.80;;;3.83;;
4756;SDS011;2392;52.578;13.426;2023-02-01T06:53:19;23.53;;;3.27;;
4756;SDS011;2392;52.578;13.426;2023-02-01T06:55:57;22.17;;;3.97;;
4756;SDS011;2392;52.578;13.426;2023-02-01T06:58:27;12.40;;;3.43;;
4756;SDS011;2392;52.578;13.426;2023-02-01T07:00:55;17.10;;;4.03;;
4756;SDS011;2392;52.578;13.426;2023-02-01T07:03:22;17.10;;;4.63;;
4756;SDS011;2392;52.578;13.426;2023-02-01T07:05:49;16.30;;;4.33;;
4756;SDS011;2392;52.578;13.426;2023-02-01T07:08:16;14.10;;;3.50;;
4756;SDS011;2392;52.578;13.426;2023-02-01T07:10:43;19.00;;;3.43;;
4756;SDS011;2392;52.578;13.426;2023-02-01T07:13:11;10.40;;;3.20;;
4756;SDS011;2392;52.578;13.426;2023-02-01T07:15:38;15.10;;;3.53;;
4756;SDS011;2392;52.578;13.426;2023-02-01T07:18:05;11.70;;;2.90;;
4756;SDS011;2392;52.578;13.426;2023-02-01T07:20:32;14.73;;;3.17;;
4756;SDS011;2392;52.578;13.426;2023-02-01T07:22:59;22.20;;;3.40;;
4756;SDS011;2392;52.578;13.426;2023-02-01T07:25:26;13.97;;;3.47;;
4756;SDS011;2392;52.578;13.426;2023-02-01T07:27:53;18.00;;;4.17;;
4756;SDS011;2392;52.578;13.426;2023-02-01T07:30:21;15.37;;;3.27;;
4756;SDS011;2392;52.578;13.426;2023-02-01T07:32:48;16.60;;;3.00;;
4756;SDS011;2392;52.578;13.426;2023-02-01T07:35:15;11.20;;;3.47;;
4756;SDS011;2392;52.578;13.426;2023-02-01T07:37:42;15.70;;;3.27;;
4756;SDS011;2392;52.578;13.426;2023-02-01T07:40:10;12.97;;;3.23;;
4756;SDS011;2392;52.578;13.426;2023-02-01T07:42:37;16.50;;;3.30;;
4756;SDS011;2392;52.578;13.426;2023-02-01T07:45:05;5.00;;;2.83;;
4756;SDS011;2392;52.578;13.426;2023-02-01T07:47:34;15.20;;;2.83;;
4756;SDS011;2392;52.578;13.426;2023-02-01T07:50:01;13.53;;;3.50;;
4756;SDS011;2392;52.578;13.426;2023-02-01T07:52:28;19.10;;;3.37;;
4756;SDS011;2392;52.578;13.426;2023-02-01T07:54:55;9.40;;;3.10;;
4756;SDS011;2392;52.578;13.426;2023-02-01T07:57:22;18.37;;;3.57;;
4756;SDS011;2392;52.578;13.426;2023-02-01T07:59:49;17.93;;;2.40;;
4756;SDS011;2392;52.578;13.426;2023-02-01T08:02:39;8.40;;;2.23;;
4756;SDS011;2392;52.578;13.426;2023-02-01T08:05:06;6.50;;;2.30;;
4756;SDS011;2392;52.578;13.426;2023-02-01T08:07:34;5.83;;;2.60;;
4756;SDS011;2392;52.578;13.426;2023-02-01T08:10:01;8.80;;;2.63;;
4756;SDS011;2392;52.578;13.426;2023-02-01T08:12:30;8.37;;;2.10;;
4756;SDS011;2392;52.578;13.426;2023-02-01T08:14:57;9.37;;;2.90;;
4756;SDS011;2392;52.578;13.426;2023-02-01T08:17:24;9.33;;;2.57;;
4756;SDS011;2392;52.578;13.426;2023-02-01T08:19:54;8.77;;;2.83;;
4756;SDS011;2392;52.578;13.426;2023-02-01T08:22:21;12.63;;;3.73;;
4756;SDS011;2392;52.578;13.426;2023-02-01T08:24:48;10.20;;;2.83;;
4756;SDS011;2392;52.578;13.426;2023-02-01T08:27:16;4.63;;;2.43;;
4756;SDS011;2392;52.578;13.426;2023-02-01T08:29:43;6.53;;;2.30;;
4756;SDS011;2392;52.578;13.426;2023-02-01T08:32:10;11.53;;;3.50;;
4756;SDS011;2392;52.578;13.426;2023-02-01T08:34:37;9.70;;;3.07;;
4756;SDS011;2392;52.578;13.426;2023-02-01T08:37:05;14.57;;;3.10;;
4756;SDS011;2392;52.578;13.426;2023-02-01T08:39:32;4.90;;;2.77;;
4756;SDS011;2392;52.578;13.426;2023-02-01T08:41:59;8.50;;;2.50;;
4756;SDS011;2392;52.578;13.426;2023-02-01T08:44:43;10.23;;;1.87;;
4756;SDS011;2392;52.578;13.426;2023-02-01T08:47:10;7.00;;;3.00;;
4756;SDS011;2392;52.578;13.426;2023-02-01T08:49:37;5.10;;;2.60;;
4756;SDS011;2392;52.578;13.426;2023-02-01T08:52:05;6.10;;;2.33;;
4756;SDS011;2392;52.578;13.426;2023-02-01T08:54:32;8.37;;;2.03;;
4756;SDS011;2392;52.578;13.426;2023-02-01T08:56:59;7.20;;;2.90;;
4756;SDS011;2392;52.578;13.426;2023-02-01T08:59:27;5.20;;;2.10;;
4756;SDS011;2392;52.578;13.426;2023-02-01T09:01:54;3.90;;;1.83;;
4756;SDS011;2392;52.578;13.426;2023-02-01T09:04:22;4.33;;;2.33;;
4756;SDS011;2392;52.578;13.426;2023-02-01T09:06:49;2.17;;;1.87;;
4756;SDS011;2392;52.578;13.426;2023-02-01T09:09:17;3.10;;;1.90;;
4756;SDS011;2392;52.578;13.426;2023-02-01T09:11:44;3.93;;;2.43;;
4756;SDS011;2392;52.578;13.426;2023-02-01T09:14:11;3.43;;;2.33;;
4756;SDS011;2392;52.578;13.426;2023-02-01T09:16:38;9.90;;;2.70;;
4756;SDS011;2392;52.578;13.426;2023-02-01T09:19:05;5.93;;;3.50;;
4756;SDS011;2392;52.578;13.426;2023-02-01T09:21:32;4.40;;;2.30;;
4756;SDS011;2392;52.578;13.426;2023-02-01T09:23:59;5.60;;;2.07;;
4756;SDS011;2392;52.578;13.426;2023-02-01T09:26:27;6.47;;;2.20;;
4756;SDS011;2392;52.578;13.426;2023-02-01T09:28:54;6.17;;;1.80;;
4756;SDS011;2392;52.578;13.426;2023-02-01T09:31:21;3.80;;;1.77;;
4756;SDS011;2392;52.578;13.426;2023-02-01T09:33:48;6.60;;;1.90;;
4756;SDS011;2392;52.578;13.426;2023-02-01T09:36:15;5.33;;;1.80;;
4756;SDS011;2392;52.578;13.426;2023-02-01T09:38:44;2.83;;;2.20;;
4756;SDS011;2392;52.578;13.426;2023-02-01T09:41:16;4.97;;;1.67;;
4756;SDS011;2392;52.578;13.426;2023-02-01T09:43:55;4.13;;;2.40;;
4756;SDS011;2392;52.578;13.426;2023-02-01T09:46:30;1.37;;;0.80;;
4756;SDS011;2392;52.578;13.426;2023-02-01T09:49:00;5.20;;;1.43;;
4756;SDS011;2392;52.578;13.426;2023-02-01T09:51:31;2.30;;;1.00;;
4756;SDS011;2392;52.578;13.426;2023-02-01T09:54:03;1.77;;;1.60;;
4756;SDS011;2392;52.578;13.426;2023-02-01T09:56:36;2.10;;;1.50;;
4756;SDS011;2392;52.578;13.426;2023-02-01T09:59:15;3.13;;;1.43;;
4756;SDS011;2392;52.578;13.426;2023-02-01T10:01:52;2.30;;;1.30;;
4756;SDS011;2392;52.578;13.426;2023-02-01T10:04:19;1.57;;;1.03;;
4756;SDS011;2392;52.578;13.426;2023-02-01T10:06:50;3.80;;;0.97;;
4756;SDS011;2392;52.578;13.426;2023-02-01T10:09:30;2.00;;;0.83;;
4756;SDS011;2392;52.578;13.426;2023-02-01T10:12:18;4.03;;;1.17;;
4756;SDS011;2392;52.578;13.426;2023-02-01T10:15:24;1.30;;;1.20;;
4756;SDS011;2392;52.578;13.426;2023-02-01T10:18:03;1.93;;;1.43;;
4756;SDS011;2392;52.578;13.426;2023-02-01T10:20:47;2.00;;;1.40;;
4756;SDS011;2392;52.578;13.426;2023-02-01T10:23:27;3.93;;;1.43;;
4756;SDS011;2392;52.578;13.426;2023-02-01T10:26:08;3.73;;;1.73;;
4756;SDS011;2392;52.578;13.426;2023-02-01T10:28:44;8.07;;;1.50;;
4756;SDS011;2392;52.578;13.426;2023-02-01T10:31:15;4.07;;;1.40;;
4756;SDS011;2392;52.578;13.426;2023-02-01T10:33:44;2.60;;;1.70;;
4756;SDS011;2392;52.578;13.426;2023-02-01T10:36:13;3.40;;;1.30;;
4756;SDS011;2392;52.578;13.426;2023-02-01T10:38:43;2.40;;;0.90;;
4756;SDS011;2392;52.578;13.426;2023-02-01T10:41:12;4.80;;;1.80;;
4756;SDS011;2392;52.578;13.426;2023-02-01T10:43:41;8.17;;;1.20;;
4756;SDS011;2392;52.578;13.426;2023-02-01T10:46:09;5.03;;;1.40;;
4756;SDS011;2392;52.578;13.426;2023-02-01T10:48:38;3.90;;;1.20;;
4756;SDS011;2392;52.578;13.426;2023-02-01T10:51:06;5.30;;;1.57;;
4756;SDS011;2392;52.578;13.426;2023-02-01T10:53:39;1.87;;;1.17;;
4756;SDS011;2392;52.578;13.426;2023-02-01T10:56:12;3.17;;;1.20;;
4756;SDS011;2392;52.578;13.426;2023-02-01T10:58:43;2.87;;;1.10;;
4756;SDS011;2392;52.578;13.426;2023-02-01T11:01:15;6.97;;;1.77;;
4756;SDS011;2392;52.578;13.426;2023-02-01T11:03:46;3.97;;;1.13;;
4756;SDS011;2392;52.578;13.426;2023-02-01T11:06:24;2.50;;;1.30;;
4756;SDS011;2392;52.578;13.426;2023-02-01T11:08:54;14.40;;;1.30;;
4756;SDS011;2392;52.578;13.426;2023-02-01T11:11:22;6.13;;;1.30;;
4756;SDS011;2392;52.578;13.426;2023-02-01T11:13:54;2.83;;;1.53;;
4756;SDS011;2392;52.578;13.426;2023-02-01T11:16:28;4.00;;;1.37;;
4756;SDS011;2392;52.578;13.426;2023-02-01T11:18:58;2.93;;;1.30;;
4756;SDS011;2392;52.578;13.426;2023-02-01T11:21:25;3.23;;;1.73;;
4756;SDS011;2392;52.578;13.426;2023-02-01T11:23:53;3.27;;;1.40;;
4756;SDS011;2392;52.578;13.426;2023-02-01T11:26:21;8.30;;;2.13;;
4756;SDS011;2392;52.578;13.426;2023-02-01T11:28:54;5.33;;;1.93;;
4756;SDS011;2392;52.578;13.426;2023-02-01T11:31:24;3.17;;;1.50;;
4756;SDS011;2392;52.578;13.426;2023-02-01T11:33:54;8.03;;;1.93;;
4756;SDS011;2392;52.578;13.426;2023-02-01T11:36:26;9.60;;;1.90;;
4756;SDS011;2392;52.578;13.426;2023-02-01T11:39:07;3.77;;;2.10;;
4756;SDS011;2392;52.578;13.426;2023-02-01T11:41:43;9.40;;;2.10;;
4756;SDS011;2392;52.578;13.426;2023-02-01T11:44:21;9.00;;;2.00;;
4756;SDS011;2392;52.578;13.426;2023-02-01T11:46:50;6.63;;;1.80;;
4756;SDS011;2392;52.578;13.426;2023-02-01T11:49:21;7.70;;;1.80;;
4756;SDS011;2392;52.578;13.426;2023-02-01T11:51:57;6.83;;;2.20;;
4756;SDS011;2392;52.578;13.426;2023-02-01T11:54:41;5.00;;;1.90;;
4756;SDS011;2392;52.578;13.426;2023-02-01T11:57:22;12.70;;;2.97;;
4756;SDS011;2392;52.578;13.426;2023-02-01T12:00:16;9.83;;;1.73;;
4756;SDS011;2392;52.578;13.426;2023-02-01T12:02:59;6.73;;;1.83;;
4756;SDS011;2392;52.578;13.426;2023-02-01T12:05:47;7.50;;;1.90;;
4756;SDS011;2392;52.578;13.426;2023-02-01T12:08:25;5.90;;;2.03;;
4756;SDS011;2392;52.578;13.426;2023-02-01T12:11:16;5.20;;;1.67;;
4756;SDS011;2392;52.578;13.426;2023-02-01T12:13:59;4.80;;;1.50;;
4756;SDS011;2392;52.578;13.426;2023-02-01T12:16:38;12.90;;;1.90;;
4756;SDS011;2392;52.578;13.426;2023-02-01T12:22:11;6.50;;;1.80;;
4756;SDS011;2392;52.578;13.426;2023-02-01T12:24:57;4.10;;;1.73;;
4756;SDS011;2392;52.578;13.426;2023-02-01T12:27:51;6.60;;;1.80;;
4756;SDS011;2392;52.578;13.426;2023-02-01T12:30:52;6.33;;;1.67;;
4756;SDS011;2392;52.578;13.426;2023-02-01T12:33:38;13.50;;;1.90;;
4756;SDS011;2392;52.578;13.426;2023-02-01T12:36:16;7.60;;;1.70;;
4756;SDS011;2392;52.578;13.426;2023-02-01T12:38:52;11.33;;;2.10;;
4756;SDS011;2392;52.578;13.426;2023-02-01T12:41:32;7.80;;;2.23;;
4756;SDS011;2392;52.578;13.426;2023-02-01T12:44:18;8.57;;;2.00;;
4756;SDS011;2392;52.578;13.426;2023-02-01T12:46:54;13.83;;;2.20;;
4756;SDS011;2392;52.578;13.426;2023-02-01T12:49:27;4.50;;;1.67;;
4756;SDS011;2392;52.578;13.426;2023-02-01T12:51:59;6.77;;;1.80;;
4756;SDS011;2392;52.578;13.426;2023-02-01T12:54:31;5.97;;;2.40;;
4756;SDS011;2392;52.578;13.426;2023-02-01T12:57:05;8.10;;;2.07;;
4756;SDS011;2392;52.578;13.426;2023-02-01T12:59:39;8.97;;;2.17;;
4756;SDS011;2392;52.578;13.426;2023-02-01T13:02:12;3.60;;;1.43;;
4756;SDS011;2392;52.578;13.426;2023-02-01T13:04:49;7.80;;;2.30;;
4756;SDS011;2392;52.578;13.426;2023-02-01T13:07:28;3.07;;;2.00;;
4756;SDS011;2392;52.578;13.426;2023-02-01T13:09:59;2.23;;;1.10;;
4756;SDS011;2392;52.578;13.426;2023-02-01T13:12:32;11.23;;;1.03;;
4756;SDS011;2392;52.578;13.426;2023-02-01T13:15:02;1.80;;;0.60;;
4756;SDS011;2392;52.578;13.426;2023-02-01T13:17:36;2.10;;;0.60;;
4756;SDS011;2392;52.578;13.426;2023-02-01T13:20:06;0.50;;;0.50;;
4756;SDS011;2392;52.578;13.426;2023-02-01T13:22:43;1.80;;;0.77;;
4756;SDS011;2392;52.578;13.426;2023-02-01T13:25:13;1.80;;;0.90;;
4756;SDS011;2392;52.578;13.426;2023-02-01T13:27:45;4.23;;;1.20;;
4756;SDS011;2392;52.578;13.426;2023-02-01T13:30:14;10.00;;;4.83;;
4756;SDS011;2392;52.578;13.426;2023-02-01T13:35:54;2.83;;;2.00;;
4756;SDS011;2392;52.578;13.426;2023-02-01T13:38:45;2.50;;;1.47;;
4756;SDS011;2392;52.578;13.426;2023-02-01T13:41:39;4.63;;;1.50;;
4756;SDS011;2392;52.578;13.426;2023-02-01T13:44:19;6.13;;;1.70;;
4756;SDS011;2392;52.578;13.426;2023-02-01T13:46:53;6.93;;;2.27;;
4756;SDS011;2392;52.578;13.426;2023-02-01T13:49:24;4.50;;;1.87;;
4756;SDS011;2392;52.578;13.426;2023-02-01T13:51:54;4.00;;;2.33;;
4756;SDS011;2392;52.578;13.426;2023-02-01T13:54:23;10.83;;;2.30;;
4756;SDS011;2392;52.578;13.426;2023-02-01T13:56:53;13.83;;;1.87;;
4756;SDS011;2392;52.578;13.426;2023-02-01T14:02:37;17.13;;;2.17;;
4756;SDS011;2392;52.578;13.426;2023-02-01T14:08:40;6.47;;;1.70;;
4756;SDS011;2392;52.578;13.426;2023-02-01T14:17:53;3.90;;;1.70;;
4756;SDS011;2392;52.578;13.426;2023-02-01T14:23:21;11.43;;;2.40;;
4756;SDS011;2392;52.578;13.426;2023-02-01T14:26:02;7.10;;;1.83;;
4756;SDS011;2392;52.578;13.426;2023-02-01T14:28:51;3.87;;;1.60;;
4756;SDS011;2392;52.578;13.426;2023-02-01T14:31:35;8.03;;;1.90;;
4756;SDS011;2392;52.578;13.426;2023-02-01T14:34:18;9.87;;;2.30;;
4756;SDS011;2392;52.578;13.426;2023-02-01T14:36:55;6.77;;;2.00;;
4756;SDS011;2392;52.578;13.426;2023-02-01T14:39:26;6.87;;;2.30;;
4756;SDS011;2392;52.578;13.426;2023-02-01T14:42:01;3.83;;;2.20;;
4756;SDS011;2392;52.578;13.426;2023-02-01T14:44:36;11.70;;;3.13;;
4756;SDS011;2392;52.578;13.426;2023-02-01T14:50:17;8.00;;;2.80;;
4756;SDS011;2392;52.578;13.426;2023-02-01T14:53:06;7.97;;;2.53;;
4756;SDS011;2392;52.578;13.426;2023-02-01T14:55:40;11.53;;;3.47;;
4756;SDS011;2392;52.578;13.426;2023-02-01T14:58:13;18.80;;;3.30;;
4756;SDS011;2392;52.578;13.426;2023-02-01T15:00:48;5.80;;;2.40;;
4756;SDS011;2392;52.578;13.426;2023-02-01T15:03:29;14.17;;;2.70;;
4756;SDS011;2392;52.578;13.426;2023-02-01T15:06:20;5.80;;;2.70;;
4756;SDS011;2392;52.578;13.426;2023-02-01T15:09:11;13.00;;;2.97;;
4756;SDS011;2392;52.578;13.426;2023-02-01T15:11:54;7.87;;;2.67;;
4756;SDS011;2392;52.578;13.426;2023-02-01T15:14:26;16.90;;;3.00;;
4756;SDS011;2392;52.578;13.426;2023-02-01T15:16:54;7.30;;;2.57;;
4756;SDS011;2392;52.578;13.426;2023-02-01T15:19:21;7.10;;;2.67;;
4756;SDS011;2392;52.578;13.426;2023-02-01T15:21:52;3.43;;;1.50;;
4756;SDS011;2392;52.578;13.426;2023-02-01T15:24:21;3.70;;;1.57;;
4756;SDS011;2392;52.578;13.426;2023-02-01T15:26:49;2.53;;;1.33;;
4756;SDS011;2392;52.578;13.426;2023-02-01T15:29:17;1.13;;;1.00;;
4756;SDS011;2392;52.578;13.426;2023-02-01T15:31:46;1.50;;;1.00;;
4756;SDS011;2392;52.578;13.426;2023-02-01T15:34:15;2.10;;;1.03;;
4756;SDS011;2392;52.578;13.426;2023-02-01T15:36:43;3.07;;;1.20;;
4756;SDS011;2392;52.578;13.426;2023-02-01T15:39:13;4.40;;;1.23;;
4756;SDS011;2392;52.578;13.426;2023-02-01T15:41:44;4.47;;;2.00;;
4756;SDS011;2392;52.578;13.426;2023-02-01T15:44:16;2.53;;;1.03;;
4756;SDS011;2392;52.578;13.426;2023-02-01T15:46:46;1.10;;;1.10;;
4756;SDS011;2392;52.578;13.426;2023-02-01T15:49:17;1.27;;;1.17;;